sensor_id;sensor_type;location;lat;lon;timestamp;P1;durP1;ratioP1;P2;durP2;ratioP2
3337;SDS011;1682;49.286;10.788;2023-02-28T00:02:28;3.90;;;3.03;;
3337;SDS011;1682;49.286;10.788;2023-02-28T00:04:55;3.13;;;2.73;;
3337;SDS011;1682;49.286;10.788;2023-02-28T00:07:26;4.90;;;3.50;;
3337;SDS011;1682;49.286;10.788;2023-02-28T00:09:53;4.23;;;3.13;;
3337;SDS011;1682;49.286;10.788;2023-02-28T00:12:22;4.93;;;3.20;;
3337;SDS011;1682;49.286;10.788;2023-02-28T00:14:49;3.67;;;3.40;;
3337;SDS011;1682;49.286;10.788;2023-02-28T00:17:16;3.00;;;2.73;;
3337;SDS011;1682;49.286;10.788;2023-02-28T00:19:46;3.73;;;3.20;;
3337;SDS011;1682;49.286;10.788;2023-02-28T00:22:13;2.90;;;2.70;;
3337;SDS011;1682;49.286;10.788;2023-02-28T00:24:40;4.60;;;3.60;;
3337;SDS011;1682;49.286;10.788;2023-02-28T00:27:09;3.93;;;3.07;;
3337;SDS011;1682;49.286;10.788;2023-02-28T00:29:38;4.07;;;3.53;;
3337;SDS011;1682;49.286;10.788;2023-02-28T00:32:05;3.60;;;3.27;;
3337;SDS011;1682;49.286;10.788;2023-02-28T00:34:33;2.70;;;2.60;;
3337;SDS011;1682;49.286;10.788;2023-02-28T00:37:02;3.17;;;2.97;;
3337;SDS011;1682;49.286;10.788;2023-02-28T00:39:30;3.80;;;3.03;;
3337;SDS011;1682;49.286;10.788;2023-02-28T00:41:57;4.07;;;3.03;;
3337;SDS011;1682;49.286;10.788;2023-02-28T00:44:24;3.67;;;3.33;;
3337;SDS011;1682;49.286;10.788;2023-02-28T00:46:53;3.93;;;3.53;;
3337;SDS011;1682;49.286;10.788;2023-02-28T00:49:21;5.10;;;2.90;;
3337;SDS011;1682;49.286;10.788;2023-02-28T00:51:48;4.30;;;3.13;;
3337;SDS011;1682;49.286;10.788;2023-02-28T00:54:16;3.37;;;3.17;;
3337;SDS011;1682;49.286;10.788;2023-02-28T00:56:43;3.57;;;2.87;;
3337;SDS011;1682;49.286;10.788;2023-02-28T00:59:11;4.10;;;3.73;;
3337;SDS011;1682;49.286;10.788;2023-02-28T01:01:38;9.40;;;4.47;;
3337;SDS011;1682;49.286;10.788;2023-02-28T01:04:07;4.27;;;3.60;;
3337;SDS011;1682;49.286;10.788;2023-02-28T01:06:34;4.20;;;3.67;;
3337;SDS011;1682;49.286;10.788;2023-02-28T01:09:01;3.53;;;3.23;;
3337;SDS011;1682;49.286;10.788;2023-02-28T01:11:29;3.63;;;3.33;;
3337;SDS011;1682;49.286;10.788;2023-02-28T01:13:56;3.83;;;3.17;;
3337;SDS011;1682;49.286;10.788;2023-02-28T01:16:23;3.03;;;2.90;;
3337;SDS011;1682;49.286;10.788;2023-02-28T01:18:50;4.73;;;3.30;;
3337;SDS011;1682;49.286;10.788;2023-02-28T01:21:20;3.63;;;3.30;;
3337;SDS011;1682;49.286;10.788;2023-02-28T01:23:48;4.23;;;3.77;;
3337;SDS011;1682;49.286;10.788;2023-02-28T01:26:15;5.70;;;5.00;;
3337;SDS011;1682;49.286;10.788;2023-02-28T01:28:43;4.40;;;4.00;;
3337;SDS011;1682;49.286;10.788;2023-02-28T01:31:10;5.60;;;3.70;;
3337;SDS011;1682;49.286;10.788;2023-02-28T01:33:38;5.23;;;3.37;;
3337;SDS011;1682;49.286;10.788;2023-02-28T01:36:06;4.27;;;3.97;;
3337;SDS011;1682;49.286;10.788;2023-02-28T01:38:35;8.00;;;4.03;;
3337;SDS011;1682;49.286;10.788;2023-02-28T01:41:02;3.03;;;2.80;;
3337;SDS011;1682;49.286;10.788;2023-02-28T01:43:30;8.10;;;3.43;;
3337;SDS011;1682;49.286;10.788;2023-02-28T01:45:58;5.07;;;3.83;;
3337;SDS011;1682;49.286;10.788;2023-02-28T01:48:26;4.60;;;4.20;;
3337;SDS011;1682;49.286;10.788;2023-02-28T01:50:54;3.20;;;3.00;;
3337;SDS011;1682;49.286;10.788;2023-02-28T01:53:26;5.43;;;3.80;;
3337;SDS011;1682;49.286;10.788;2023-02-28T01:55:55;3.90;;;3.50;;
3337;SDS011;1682;49.286;10.788;2023-02-28T01:58:23;4.47;;;4.07;;
3337;SDS011;1682;49.286;10.788;2023-02-28T02:00:50;3.50;;;3.17;;
3337;SDS011;1682;49.286;10.788;2023-02-28T02:03:18;4.03;;;3.73;;
3337;SDS011;1682;49.286;10.788;2023-02-28T02:05:46;4.70;;;3.77;;
3337;SDS011;1682;49.286;10.788;2023-02-28T02:08:15;4.13;;;3.23;;
3337;SDS011;1682;49.286;10.788;2023-02-28T02:10:43;3.17;;;2.93;;
3337;SDS011;1682;49.286;10.788;2023-02-28T02:13:29;5.87;;;3.70;;
3337;SDS011;1682;49.286;10.788;2023-02-28T02:16:02;5.10;;;3.40;;
3337;SDS011;1682;49.286;10.788;2023-02-28T02:18:32;7.10;;;4.63;;
3337;SDS011;1682;49.286;10.788;2023-02-28T02:21:09;4.83;;;4.33;;
3337;SDS011;1682;49.286;10.788;2023-02-28T02:32:06;6.67;;;4.43;;
3337;SDS011;1682;49.286;10.788;2023-02-28T02:34:42;5.10;;;4.33;;
3337;SDS011;1682;49.286;10.788;2023-02-28T02:37:15;4.33;;;3.47;;
3337;SDS011;1682;49.286;10.788;2023-02-28T02:39:48;5.10;;;3.50;;
3337;SDS011;1682;49.286;10.788;2023-02-28T02:42:20;4.20;;;3.67;;
3337;SDS011;1682;49.286;10.788;2023-02-28T02:44:50;3.87;;;3.47;;
3337;SDS011;1682;49.286;10.788;2023-02-28T02:47:19;7.20;;;5.00;;
3337;SDS011;1682;49.286;10.788;2023-02-28T02:49:49;4.83;;;4.43;;
3337;SDS011;1682;49.286;10.788;2023-02-28T02:52:18;4.80;;;3.57;;
3337;SDS011;1682;49.286;10.788;2023-02-28T02:54:47;5.43;;;4.40;;
3337;SDS011;1682;49.286;10.788;2023-02-28T02:57:17;3.63;;;3.33;;
3337;SDS011;1682;49.286;10.788;2023-02-28T02:59:47;9.40;;;4.47;;
3337;SDS011;1682;49.286;10.788;2023-02-28T03:02:15;5.60;;;5.00;;
3337;SDS011;1682;49.286;10.788;2023-02-28T03:04:45;5.87;;;4.73;;
3337;SDS011;1682;49.286;10.788;2023-02-28T03:07:14;5.23;;;4.27;;
3337;SDS011;1682;49.286;10.788;2023-02-28T03:09:49;4.80;;;4.20;;
3337;SDS011;1682;49.286;10.788;2023-02-28T03:12:16;5.33;;;4.03;;
3337;SDS011;1682;49.286;10.788;2023-02-28T03:14:47;4.70;;;4.30;;
3337;SDS011;1682;49.286;10.788;2023-02-28T03:17:21;4.77;;;4.23;;
3337;SDS011;1682;49.286;10.788;2023-02-28T03:19:55;6.40;;;4.53;;
3337;SDS011;1682;49.286;10.788;2023-02-28T03:25:16;12.10;;;5.03;;
3337;SDS011;1682;49.286;10.788;2023-02-28T03:27:47;4.97;;;3.80;;
3337;SDS011;1682;49.286;10.788;2023-02-28T03:30:22;4.80;;;4.10;;
3337;SDS011;1682;49.286;10.788;2023-02-28T03:32:50;6.20;;;3.53;;
3337;SDS011;1682;49.286;10.788;2023-02-28T03:35:20;5.50;;;5.03;;
3337;SDS011;1682;49.286;10.788;2023-02-28T03:37:49;4.80;;;4.40;;
3337;SDS011;1682;49.286;10.788;2023-02-28T03:40:19;4.83;;;4.43;;
3337;SDS011;1682;49.286;10.788;2023-02-28T03:42:48;5.10;;;4.40;;
3337;SDS011;1682;49.286;10.788;2023-02-28T03:45:16;6.50;;;4.50;;
3337;SDS011;1682;49.286;10.788;2023-02-28T03:47:45;5.20;;;4.70;;
3337;SDS011;1682;49.286;10.788;2023-02-28T03:50:15;7.20;;;4.80;;
3337;SDS011;1682;49.286;10.788;2023-02-28T03:52:45;5.57;;;4.73;;
3337;SDS011;1682;49.286;10.788;2023-02-28T03:55:14;6.00;;;5.03;;
3337;SDS011;1682;49.286;10.788;2023-02-28T03:57:47;5.63;;;5.07;;
3337;SDS011;1682;49.286;10.788;2023-02-28T04:00:18;6.30;;;5.20;;
3337;SDS011;1682;49.286;10.788;2023-02-28T04:02:46;5.27;;;4.77;;
3337;SDS011;1682;49.286;10.788;2023-02-28T04:05:17;5.30;;;4.80;;
3337;SDS011;1682;49.286;10.788;2023-02-28T04:07:44;5.80;;;5.30;;
3337;SDS011;1682;49.286;10.788;2023-02-28T04:10:12;5.83;;;5.23;;
3337;SDS011;1682;49.286;10.788;2023-02-28T04:12:39;5.27;;;4.40;;
3337;SDS011;1682;49.286;10.788;2023-02-28T04:15:08;5.97;;;5.47;;
3337;SDS011;1682;49.286;10.788;2023-02-28T04:17:36;10.60;;;5.40;;
3337;SDS011;1682;49.286;10.788;2023-02-28T04:20:03;5.97;;;5.00;;
3337;SDS011;1682;49.286;10.788;2023-02-28T04:22:34;5.07;;;4.67;;
3337;SDS011;1682;49.286;10.788;2023-02-28T04:25:02;7.10;;;6.40;;
3337;SDS011;1682;49.286;10.788;2023-02-28T04:27:30;6.00;;;4.80;;
3337;SDS011;1682;49.286;10.788;2023-02-28T04:29:57;7.23;;;5.90;;
3337;SDS011;1682;49.286;10.788;2023-02-28T04:32:26;6.67;;;5.60;;
3337;SDS011;1682;49.286;10.788;2023-02-28T04:34:53;5.47;;;4.93;;
3337;SDS011;1682;49.286;10.788;2023-02-28T04:37:20;5.97;;;5.43;;
3337;SDS011;1682;49.286;10.788;2023-02-28T04:39:52;5.90;;;4.43;;
3337;SDS011;1682;49.286;10.788;2023-02-28T04:42:20;5.73;;;5.10;;
3337;SDS011;1682;49.286;10.788;2023-02-28T04:44:47;8.60;;;5.00;;
3337;SDS011;1682;49.286;10.788;2023-02-28T04:47:14;6.87;;;6.20;;
3337;SDS011;1682;49.286;10.788;2023-02-28T04:49:43;9.60;;;5.87;;
3337;SDS011;1682;49.286;10.788;2023-02-28T04:52:10;7.47;;;5.67;;
3337;SDS011;1682;49.286;10.788;2023-02-28T04:54:38;6.53;;;5.00;;
3337;SDS011;1682;49.286;10.788;2023-02-28T04:57:05;7.80;;;5.43;;
3337;SDS011;1682;49.286;10.788;2023-02-28T04:59:32;7.27;;;5.20;;
3337;SDS011;1682;49.286;10.788;2023-02-28T05:01:59;9.37;;;6.27;;
3337;SDS011;1682;49.286;10.788;2023-02-28T05:04:31;8.17;;;5.97;;
3337;SDS011;1682;49.286;10.788;2023-02-28T05:07:00;12.27;;;6.57;;
3337;SDS011;1682;49.286;10.788;2023-02-28T05:09:28;7.37;;;6.60;;
3337;SDS011;1682;49.286;10.788;2023-02-28T05:11:55;7.27;;;6.60;;
3337;SDS011;1682;49.286;10.788;2023-02-28T05:14:23;8.10;;;5.37;;
3337;SDS011;1682;49.286;10.788;2023-02-28T05:16:50;6.10;;;5.50;;
3337;SDS011;1682;49.286;10.788;2023-02-28T05:19:17;8.73;;;6.57;;
3337;SDS011;1682;49.286;10.788;2023-02-28T05:21:49;6.67;;;5.97;;
3337;SDS011;1682;49.286;10.788;2023-02-28T05:24:19;6.50;;;5.90;;
3337;SDS011;1682;49.286;10.788;2023-02-28T05:26:48;7.13;;;6.43;;
3337;SDS011;1682;49.286;10.788;2023-02-28T05:29:15;9.30;;;6.00;;
3337;SDS011;1682;49.286;10.788;2023-02-28T05:31:43;7.10;;;6.17;;
3337;SDS011;1682;49.286;10.788;2023-02-28T05:34:10;7.73;;;6.70;;
3337;SDS011;1682;49.286;10.788;2023-02-28T05:36:37;9.57;;;7.00;;
3337;SDS011;1682;49.286;10.788;2023-02-28T05:39:05;8.97;;;6.20;;
3337;SDS011;1682;49.286;10.788;2023-02-28T05:41:38;6.70;;;6.00;;
3337;SDS011;1682;49.286;10.788;2023-02-28T05:44:06;8.70;;;6.10;;
3337;SDS011;1682;49.286;10.788;2023-02-28T05:46:33;6.27;;;5.63;;
3337;SDS011;1682;49.286;10.788;2023-02-28T05:49:00;9.90;;;5.60;;
3337;SDS011;1682;49.286;10.788;2023-02-28T05:51:27;9.70;;;6.27;;
3337;SDS011;1682;49.286;10.788;2023-02-28T05:53:58;10.37;;;6.80;;
3337;SDS011;1682;49.286;10.788;2023-02-28T05:56:25;7.33;;;6.43;;
3337;SDS011;1682;49.286;10.788;2023-02-28T05:58:54;6.00;;;5.40;;
3337;SDS011;1682;49.286;10.788;2023-02-28T06:01:25;11.40;;;6.63;;
3337;SDS011;1682;49.286;10.788;2023-02-28T06:03:57;9.80;;;7.03;;
3337;SDS011;1682;49.286;10.788;2023-02-28T06:06:24;8.17;;;6.37;;
3337;SDS011;1682;49.286;10.788;2023-02-28T06:08:52;10.90;;;7.13;;
3337;SDS011;1682;49.286;10.788;2023-02-28T06:11:19;6.30;;;5.70;;
3337;SDS011;1682;49.286;10.788;2023-02-28T06:13:46;10.20;;;6.20;;
3337;SDS011;1682;49.286;10.788;2023-02-28T06:16:15;7.90;;;6.50;;
3337;SDS011;1682;49.286;10.788;2023-02-28T06:18:42;7.67;;;5.97;;
3337;SDS011;1682;49.286;10.788;2023-02-28T06:21:09;8.47;;;6.50;;
3337;SDS011;1682;49.286;10.788;2023-02-28T06:23:36;7.90;;;6.50;;
3337;SDS011;1682;49.286;10.788;2023-02-28T06:26:03;10.17;;;6.47;;
3337;SDS011;1682;49.286;10.788;2023-02-28T06:28:31;7.80;;;7.00;;
3337;SDS011;1682;49.286;10.788;2023-02-28T06:30:58;8.47;;;6.83;;
3337;SDS011;1682;49.286;10.788;2023-02-28T06:33:26;6.13;;;5.47;;
3337;SDS011;1682;49.286;10.788;2023-02-28T06:35:53;8.20;;;7.50;;
3337;SDS011;1682;49.286;10.788;2023-02-28T06:38:21;10.20;;;8.10;;
3337;SDS011;1682;49.286;10.788;2023-02-28T06:40:52;10.00;;;7.90;;
3337;SDS011;1682;49.286;10.788;2023-02-28T06:43:19;7.97;;;6.67;;
3337;SDS011;1682;49.286;10.788;2023-02-28T06:45:47;8.40;;;6.90;;
3337;SDS011;1682;49.286;10.788;2023-02-28T06:48:14;9.13;;;6.93;;
3337;SDS011;1682;49.286;10.788;2023-02-28T06:50:42;6.90;;;6.13;;
3337;SDS011;1682;49.286;10.788;2023-02-28T06:53:10;8.60;;;6.60;;
3337;SDS011;1682;49.286;10.788;2023-02-28T06:55:38;7.30;;;5.87;;
3337;SDS011;1682;49.286;10.788;2023-02-28T06:58:05;7.90;;;7.10;;
3337;SDS011;1682;49.286;10.788;2023-02-28T07:00:39;6.53;;;5.93;;
3337;SDS011;1682;49.286;10.788;2023-02-28T07:03:07;8.10;;;5.60;;
3337;SDS011;1682;49.286;10.788;2023-02-28T07:05:34;6.40;;;5.80;;
3337;SDS011;1682;49.286;10.788;2023-02-28T07:08:03;7.60;;;6.07;;
3337;SDS011;1682;49.286;10.788;2023-02-28T07:10:31;5.73;;;5.20;;
3337;SDS011;1682;49.286;10.788;2023-02-28T07:12:58;8.40;;;6.53;;
3337;SDS011;1682;49.286;10.788;2023-02-28T07:15:25;6.70;;;5.50;;
3337;SDS011;1682;49.286;10.788;2023-02-28T07:17:53;7.70;;;6.70;;
3337;SDS011;1682;49.286;10.788;2023-02-28T07:20:21;6.00;;;5.40;;
3337;SDS011;1682;49.286;10.788;2023-02-28T07:22:49;9.33;;;6.20;;
3337;SDS011;1682;49.286;10.788;2023-02-28T07:25:22;11.30;;;7.03;;
3337;SDS011;1682;49.286;10.788;2023-02-28T07:27:50;7.73;;;6.57;;
3337;SDS011;1682;49.286;10.788;2023-02-28T07:30:17;8.30;;;7.50;;
3337;SDS011;1682;49.286;10.788;2023-02-28T07:32:45;7.77;;;6.50;;
3337;SDS011;1682;49.286;10.788;2023-02-28T07:35:12;12.17;;;7.03;;
3337;SDS011;1682;49.286;10.788;2023-02-28T07:37:40;11.97;;;6.00;;
3337;SDS011;1682;49.286;10.788;2023-02-28T07:40:08;13.47;;;5.10;;
3337;SDS011;1682;49.286;10.788;2023-02-28T07:42:39;7.80;;;6.60;;
3337;SDS011;1682;49.286;10.788;2023-02-28T07:45:07;7.63;;;5.90;;
3337;SDS011;1682;49.286;10.788;2023-02-28T07:47:36;10.03;;;6.70;;
3337;SDS011;1682;49.286;10.788;2023-02-28T07:50:04;11.10;;;7.37;;
3337;SDS011;1682;49.286;10.788;2023-02-28T07:52:31;8.93;;;5.53;;
3337;SDS011;1682;49.286;10.788;2023-02-28T07:54:58;10.20;;;6.43;;
3337;SDS011;1682;49.286;10.788;2023-02-28T07:57:25;4.90;;;4.40;;
3337;SDS011;1682;49.286;10.788;2023-02-28T07:59:54;6.93;;;4.90;;
3337;SDS011;1682;49.286;10.788;2023-02-28T08:02:21;7.33;;;3.67;;
3337;SDS011;1682;49.286;10.788;2023-02-28T08:04:49;7.60;;;5.93;;
3337;SDS011;1682;49.286;10.788;2023-02-28T08:07:16;5.93;;;4.70;;
3337;SDS011;1682;49.286;10.788;2023-02-28T08:09:44;6.43;;;5.00;;
3337;SDS011;1682;49.286;10.788;2023-02-28T08:12:11;8.20;;;6.20;;
3337;SDS011;1682;49.286;10.788;2023-02-28T08:14:38;13.37;;;5.60;;
3337;SDS011;1682;49.286;10.788;2023-02-28T08:17:07;7.43;;;6.10;;
3337;SDS011;1682;49.286;10.788;2023-02-28T08:19:34;6.33;;;5.73;;
3337;SDS011;1682;49.286;10.788;2023-02-28T08:22:02;10.73;;;6.13;;
3337;SDS011;1682;49.286;10.788;2023-02-28T08:24:29;7.20;;;5.60;;
3337;SDS011;1682;49.286;10.788;2023-02-28T08:26:56;8.10;;;4.83;;
3337;SDS011;1682;49.286;10.788;2023-02-28T08:29:23;6.67;;;5.60;;
3337;SDS011;1682;49.286;10.788;2023-02-28T08:31:51;8.93;;;5.40;;
3337;SDS011;1682;49.286;10.788;2023-02-28T08:34:19;6.53;;;5.00;;
3337;SDS011;1682;49.286;10.788;2023-02-28T08:36:47;8.33;;;6.47;;
3337;SDS011;1682;49.286;10.788;2023-02-28T08:39:14;6.03;;;5.27;;
3337;SDS011;1682;49.286;10.788;2023-02-28T08:41:42;6.80;;;4.53;;
3337;SDS011;1682;49.286;10.788;2023-02-28T08:44:09;9.00;;;6.30;;
3337;SDS011;1682;49.286;10.788;2023-02-28T08:46:40;11.03;;;5.13;;
3337;SDS011;1682;49.286;10.788;2023-02-28T08:49:09;10.90;;;7.57;;
3337;SDS011;1682;49.286;10.788;2023-02-28T08:51:39;9.23;;;6.67;;
3337;SDS011;1682;49.286;10.788;2023-02-28T08:54:07;6.93;;;5.63;;
3337;SDS011;1682;49.286;10.788;2023-02-28T08:56:38;14.67;;;6.23;;
3337;SDS011;1682;49.286;10.788;2023-02-28T08:59:05;8.30;;;5.50;;
3337;SDS011;1682;49.286;10.788;2023-02-28T09:01:33;10.03;;;6.97;;
3337;SDS011;1682;49.286;10.788;2023-02-28T09:04:07;24.73;;;11.83;;
3337;SDS011;1682;49.286;10.788;2023-02-28T09:06:36;24.10;;;9.03;;
3337;SDS011;1682;49.286;10.788;2023-02-28T09:09:08;16.73;;;7.90;;
3337;SDS011;1682;49.286;10.788;2023-02-28T09:11:35;13.87;;;6.93;;
3337;SDS011;1682;49.286;10.788;2023-02-28T09:14:03;6.90;;;5.70;;
3337;SDS011;1682;49.286;10.788;2023-02-28T09:16:31;9.30;;;7.50;;
3337;SDS011;1682;49.286;10.788;2023-02-28T09:18:58;13.23;;;6.10;;
3337;SDS011;1682;49.286;10.788;2023-02-28T09:21:25;12.80;;;8.07;;
3337;SDS011;1682;49.286;10.788;2023-02-28T09:23:53;12.97;;;7.93;;
3337;SDS011;1682;49.286;10.788;2023-02-28T09:26:22;6.93;;;6.23;;
3337;SDS011;1682;49.286;10.788;2023-02-28T09:28:50;10.90;;;6.90;;
3337;SDS011;1682;49.286;10.788;2023-02-28T09:31:18;18.23;;;6.80;;
3337;SDS011;1682;49.286;10.788;2023-02-28T09:33:46;9.27;;;5.37;;
3337;SDS011;1682;49.286;10.788;2023-02-28T09:36:14;10.80;;;5.50;;
3337;SDS011;1682;49.286;10.788;2023-02-28T09:38:41;11.37;;;5.30;;
3337;SDS011;1682;49.286;10.788;2023-02-28T09:41:11;9.00;;;6.50;;
3337;SDS011;1682;49.286;10.788;2023-02-28T09:43:43;7.70;;;6.60;;
3337;SDS011;1682;49.286;10.788;2023-02-28T09:46:14;7.40;;;6.60;;
3337;SDS011;1682;49.286;10.788;2023-02-28T09:48:45;12.83;;;7.17;;
3337;SDS011;1682;49.286;10.788;2023-02-28T09:51:15;13.17;;;7.30;;
3337;SDS011;1682;49.286;10.788;2023-02-28T09:53:45;19.10;;;7.57;;
3337;SDS011;1682;49.286;10.788;2023-02-28T09:56:14;11.00;;;6.80;;
3337;SDS011;1682;49.286;10.788;2023-02-28T09:58:47;8.83;;;6.30;;
3337;SDS011;1682;49.286;10.788;2023-02-28T10:01:18;11.73;;;6.87;;
3337;SDS011;1682;49.286;10.788;2023-02-28T10:03:47;12.50;;;6.70;;
3337;SDS011;1682;49.286;10.788;2023-02-28T10:06:19;11.67;;;7.30;;
3337;SDS011;1682;49.286;10.788;2023-02-28T10:08:49;17.07;;;7.93;;
3337;SDS011;1682;49.286;10.788;2023-02-28T10:11:17;8.50;;;6.67;;
3337;SDS011;1682;49.286;10.788;2023-02-28T10:13:53;13.83;;;7.03;;
3337;SDS011;1682;49.286;10.788;2023-02-28T10:16:27;11.13;;;6.30;;
3337;SDS011;1682;49.286;10.788;2023-02-28T10:18:57;5.60;;;5.00;;
3337;SDS011;1682;49.286;10.788;2023-02-28T10:21:28;6.37;;;5.77;;
3337;SDS011;1682;49.286;10.788;2023-02-28T10:24:02;9.53;;;6.60;;
3337;SDS011;1682;49.286;10.788;2023-02-28T10:26:31;10.63;;;7.70;;
3337;SDS011;1682;49.286;10.788;2023-02-28T10:29:00;7.80;;;6.60;;
3337;SDS011;1682;49.286;10.788;2023-02-28T10:31:27;8.30;;;7.07;;
3337;SDS011;1682;49.286;10.788;2023-02-28T10:33:55;8.47;;;6.20;;
3337;SDS011;1682;49.286;10.788;2023-02-28T10:36:22;10.57;;;6.50;;
3337;SDS011;1682;49.286;10.788;2023-02-28T10:38:49;18.80;;;6.87;;
3337;SDS011;1682;49.286;10.788;2023-02-28T10:41:26;7.67;;;5.77;;
3337;SDS011;1682;49.286;10.788;2023-02-28T10:43:53;7.43;;;6.10;;
3337;SDS011;1682;49.286;10.788;2023-02-28T10:46:40;8.67;;;7.10;;
3337;SDS011;1682;49.286;10.788;2023-02-28T10:49:12;7.30;;;5.70;;
3337;SDS011;1682;49.286;10.788;2023-02-28T10:51:40;15.40;;;7.20;;
3337;SDS011;1682;49.286;10.788;2023-02-28T10:54:14;14.30;;;6.43;;
3337;SDS011;1682;49.286;10.788;2023-02-28T10:56:42;8.63;;;6.73;;
3337;SDS011;1682;49.286;10.788;2023-02-28T10:59:23;8.37;;;5.83;;
3337;SDS011;1682;49.286;10.788;2023-02-28T11:01:53;14.63;;;6.40;;
3337;SDS011;1682;49.286;10.788;2023-02-28T11:04:31;16.20;;;7.33;;
3337;SDS011;1682;49.286;10.788;2023-02-28T11:07:01;18.03;;;6.73;;
3337;SDS011;1682;49.286;10.788;2023-02-28T11:09:31;8.37;;;5.30;;
3337;SDS011;1682;49.286;10.788;2023-02-28T11:12:00;5.87;;;5.30;;
3337;SDS011;1682;49.286;10.788;2023-02-28T11:14:28;13.50;;;6.50;;
3337;SDS011;1682;49.286;10.788;2023-02-28T11:16:58;9.23;;;6.63;;
3337;SDS011;1682;49.286;10.788;2023-02-28T11:19:28;7.97;;;7.17;;
3337;SDS011;1682;49.286;10.788;2023-02-28T11:21:57;10.03;;;6.43;;
3337;SDS011;1682;49.286;10.788;2023-02-28T11:24:25;12.80;;;5.70;;
3337;SDS011;1682;49.286;10.788;2023-02-28T11:26:54;9.13;;;6.37;;
3337;SDS011;1682;49.286;10.788;2023-02-28T11:29:22;9.03;;;6.80;;
3337;SDS011;1682;49.286;10.788;2023-02-28T11:32:11;6.47;;;5.77;;
3337;SDS011;1682;49.286;10.788;2023-02-28T11:34:39;9.13;;;6.63;;
3337;SDS011;1682;49.286;10.788;2023-02-28T11:37:09;14.27;;;7.60;;
3337;SDS011;1682;49.286;10.788;2023-02-28T11:39:37;8.97;;;6.50;;
3337;SDS011;1682;49.286;10.788;2023-02-28T11:42:09;12.93;;;7.33;;
3337;SDS011;1682;49.286;10.788;2023-02-28T11:44:51;18.80;;;7.37;;
3337;SDS011;1682;49.286;10.788;2023-02-28T11:47:23;9.60;;;6.90;;
3337;SDS011;1682;49.286;10.788;2023-02-28T11:49:57;8.30;;;6.33;;
3337;SDS011;1682;49.286;10.788;2023-02-28T11:52:33;8.37;;;6.60;;
3337;SDS011;1682;49.286;10.788;2023-02-28T11:55:08;10.50;;;6.40;;
3337;SDS011;1682;49.286;10.788;2023-02-28T11:57:47;8.83;;;7.20;;
3337;SDS011;1682;49.286;10.788;2023-02-28T12:00:22;17.90;;;9.27;;
3337;SDS011;1682;49.286;10.788;2023-02-28T12:02:59;24.47;;;10.00;;
3337;SDS011;1682;49.286;10.788;2023-02-28T12:05:30;12.07;;;8.37;;
3337;SDS011;1682;49.286;10.788;2023-02-28T12:08:06;15.50;;;7.87;;
3337;SDS011;1682;49.286;10.788;2023-02-28T12:10:42;13.20;;;6.93;;
3337;SDS011;1682;49.286;10.788;2023-02-28T12:13:15;11.73;;;7.70;;
3337;SDS011;1682;49.286;10.788;2023-02-28T12:15:47;12.30;;;7.90;;
3337;SDS011;1682;49.286;10.788;2023-02-28T12:18:29;20.83;;;8.57;;
3337;SDS011;1682;49.286;10.788;2023-02-28T12:20:59;9.80;;;6.90;;
3337;SDS011;1682;49.286;10.788;2023-02-28T12:23:42;7.20;;;6.47;;
3337;SDS011;1682;49.286;10.788;2023-02-28T12:26:12;15.23;;;7.70;;
3337;SDS011;1682;49.286;10.788;2023-02-28T12:28:41;7.17;;;5.60;;
3337;SDS011;1682;49.286;10.788;2023-02-28T12:31:09;9.47;;;6.90;;
3337;SDS011;1682;49.286;10.788;2023-02-28T12:33:40;12.30;;;7.80;;
3337;SDS011;1682;49.286;10.788;2023-02-28T12:36:10;9.17;;;6.57;;
3337;SDS011;1682;49.286;10.788;2023-02-28T12:38:41;8.47;;;6.50;;
3337;SDS011;1682;49.286;10.788;2023-02-28T12:41:10;9.30;;;6.80;;
3337;SDS011;1682;49.286;10.788;2023-02-28T12:43:40;7.73;;;6.20;;
3337;SDS011;1682;49.286;10.788;2023-02-28T12:46:09;8.67;;;5.87;;
3337;SDS011;1682;49.286;10.788;2023-02-28T12:48:39;9.57;;;6.13;;
3337;SDS011;1682;49.286;10.788;2023-02-28T12:51:08;15.73;;;8.07;;
3337;SDS011;1682;49.286;10.788;2023-02-28T12:53:40;12.87;;;7.83;;
3337;SDS011;1682;49.286;10.788;2023-02-28T12:56:09;8.57;;;7.10;;
3337;SDS011;1682;49.286;10.788;2023-02-28T12:58:40;11.97;;;7.20;;
3337;SDS011;1682;49.286;10.788;2023-02-28T13:01:21;11.97;;;8.33;;
3337;SDS011;1682;49.286;10.788;2023-02-28T13:06:48;8.80;;;7.20;;
3337;SDS011;1682;49.286;10.788;2023-02-28T13:09:17;15.63;;;8.77;;
3337;SDS011;1682;49.286;10.788;2023-02-28T13:11:46;8.93;;;6.90;;
3337;SDS011;1682;49.286;10.788;2023-02-28T13:14:22;13.27;;;7.17;;
3337;SDS011;1682;49.286;10.788;2023-02-28T13:16:58;7.63;;;6.67;;
3337;SDS011;1682;49.286;10.788;2023-02-28T13:19:26;9.97;;;6.47;;
3337;SDS011;1682;49.286;10.788;2023-02-28T13:21:56;6.50;;;5.90;;
3337;SDS011;1682;49.286;10.788;2023-02-28T13:24:41;18.83;;;7.90;;
3337;SDS011;1682;49.286;10.788;2023-02-28T13:29:57;21.57;;;12.43;;
3337;SDS011;1682;49.286;10.788;2023-02-28T13:32:35;10.60;;;8.20;;
3337;SDS011;1682;49.286;10.788;2023-02-28T13:38:15;10.07;;;7.13;;
3337;SDS011;1682;49.286;10.788;2023-02-28T13:40:43;12.73;;;8.67;;
3337;SDS011;1682;49.286;10.788;2023-02-28T13:43:10;10.70;;;7.63;;
3337;SDS011;1682;49.286;10.788;2023-02-28T13:45:38;11.53;;;10.33;;
3337;SDS011;1682;49.286;10.788;2023-02-28T13:48:15;17.50;;;9.73;;
3337;SDS011;1682;49.286;10.788;2023-02-28T13:50:43;12.93;;;8.13;;
3337;SDS011;1682;49.286;10.788;2023-02-28T13:55:59;19.63;;;9.80;;
3337;SDS011;1682;49.286;10.788;2023-02-28T13:58:35;10.87;;;8.10;;
3337;SDS011;1682;49.286;10.788;2023-02-28T14:01:11;12.17;;;7.17;;
3337;SDS011;1682;49.286;10.788;2023-02-28T14:03:51;8.07;;;7.27;;
3337;SDS011;1682;49.286;10.788;2023-02-28T14:06:24;7.10;;;6.43;;
3337;SDS011;1682;49.286;10.788;2023-02-28T14:08:54;9.47;;;8.07;;
3337;SDS011;1682;49.286;10.788;2023-02-28T14:11:28;14.00;;;10.10;;
3337;SDS011;1682;49.286;10.788;2023-02-28T14:13:56;11.13;;;9.40;;
3337;SDS011;1682;49.286;10.788;2023-02-28T14:16:23;10.10;;;9.00;;
3337;SDS011;1682;49.286;10.788;2023-02-28T14:18:55;15.97;;;10.60;;
3337;SDS011;1682;49.286;10.788;2023-02-28T14:21:23;8.77;;;7.87;;
3337;SDS011;1682;49.286;10.788;2023-02-28T14:24:02;10.10;;;8.60;;
3337;SDS011;1682;49.286;10.788;2023-02-28T14:26:35;10.27;;;8.70;;
3337;SDS011;1682;49.286;10.788;2023-02-28T14:29:14;14.60;;;9.40;;
3337;SDS011;1682;49.286;10.788;2023-02-28T14:31:44;8.83;;;7.40;;
3337;SDS011;1682;49.286;10.788;2023-02-28T14:34:23;9.73;;;6.80;;
3337;SDS011;1682;49.286;10.788;2023-02-28T14:36:52;11.90;;;7.07;;
3337;SDS011;1682;49.286;10.788;2023-02-28T14:39:21;9.00;;;7.87;;
3337;SDS011;1682;49.286;10.788;2023-02-28T14:41:51;9.27;;;8.03;;
3337;SDS011;1682;49.286;10.788;2023-02-28T14:44:19;10.00;;;9.00;;
3337;SDS011;1682;49.286;10.788;2023-02-28T14:46:48;10.30;;;8.73;;
3337;SDS011;1682;49.286;10.788;2023-02-28T14:49:24;13.63;;;9.37;;
3337;SDS011;1682;49.286;10.788;2023-02-28T14:52:01;12.37;;;8.50;;
3337;SDS011;1682;49.286;10.788;2023-02-28T14:54:29;8.93;;;7.43;;
3337;SDS011;1682;49.286;10.788;2023-02-28T14:56:57;11.17;;;8.23;;
3337;SDS011;1682;49.286;10.788;2023-02-28T14:59:28;9.30;;;8.30;;
3337;SDS011;1682;49.286;10.788;2023-02-28T15:02:15;10.17;;;8.27;;
3337;SDS011;1682;49.286;10.788;2023-02-28T15:04:42;8.07;;;7.07;;
3337;SDS011;1682;49.286;10.788;2023-02-28T15:07:10;12.37;;;7.80;;
3337;SDS011;1682;49.286;10.788;2023-02-28T15:09:37;14.03;;;7.97;;
3337;SDS011;1682;49.286;10.788;2023-02-28T15:12:06;7.83;;;7.07;;
3337;SDS011;1682;49.286;10.788;2023-02-28T15:14:34;10.07;;;6.70;;
3337;SDS011;1682;49.286;10.788;2023-02-28T15:17:05;13.40;;;8.10;;
3337;SDS011;1682;49.286;10.788;2023-02-28T15:19:35;18.17;;;8.87;;
3337;SDS011;1682;49.286;10.788;2023-02-28T15:22:06;12.47;;;8.63;;
3337;SDS011;1682;49.286;10.788;2023-02-28T15:24:36;9.90;;;7.50;;
3337;SDS011;1682;49.286;10.788;2023-02-28T15:27:04;11.07;;;7.93;;
3337;SDS011;1682;49.286;10.788;2023-02-28T15:29:37;12.50;;;9.40;;
3337;SDS011;1682;49.286;10.788;2023-02-28T15:32:16;10.43;;;7.83;;
3337;SDS011;1682;49.286;10.788;2023-02-28T15:34:47;11.10;;;8.87;;
3337;SDS011;1682;49.286;10.788;2023-02-28T15:37:27;13.70;;;8.20;;